Time;durP1;ratioP1;P1;durP2;ratioP2;P2;SDS_P1;SDS_P2;PMS_P1;PMS_P2;Temp;Humidity;BMP_temperature;BMP_pressure;BME280_temperature;BME280_humidity;BME280_pressure;Samples;Min_cycle;Max_cycle;Signal;HPM_P1;HPM_P2
2023/05/10 00:00:33;;;;;;;3.17;2.50;;;;;21.80;99672.00;;;;2076046;28;20233;-58
2023/05/10 00:01:33;;;;;;;2.67;2.00;;;;;21.80;99675.00;;;;2076035;28;20218;-59
2023/05/10 00:02:34;;;;;;;5.73;2.70;;;;;21.80;99672.00;;;;2078275;28;20210;-58
2023/05/10 00:03:34;;;;;;;3.50;2.53;;;;;21.80;99674.00;;;;2074125;28;20216;-58
2023/05/10 00:04:35;;;;;;;4.03;2.37;;;;;21.80;99676.00;;;;2075991;28;20692;-63
2023/05/10 00:05:35;;;;;;;2.80;2.20;;;;;21.80;99669.00;;;;2075446;28;20221;-62
2023/05/10 00:06:35;;;;;;;3.07;2.20;;;;;21.80;99672.00;;;;2077450;28;20237;-61
2023/05/10 00:07:36;;;;;;;2.50;2.30;;;;;21.80;99676.00;;;;2076534;28;20275;-59
2023/05/10 00:08:36;;;;;;;3.77;2.43;;;;;21.80;99674.00;;;;2074362;28;20213;-60
2023/05/10 00:09:36;;;;;;;2.70;2.10;;;;;21.80;99677.00;;;;2077061;28;20300;-60
2023/05/10 00:10:37;;;;;;;2.93;2.40;;;;;21.80;99674.00;;;;2077472;28;20209;-58
2023/05/10 00:11:37;;;;;;;3.00;2.30;;;;;21.80;99676.00;;;;2081610;28;20216;-58
2023/05/10 00:12:38;;;;;;;2.77;2.40;;;;;21.80;99673.00;;;;2082503;28;20266;-58
2023/05/10 00:13:38;;;;;;;3.50;1.70;;;;;21.80;99657.00;;;;2067058;28;20890;-58
2023/05/10 00:14:38;;;;;;;3.40;2.40;;;;;21.80;99676.00;;;;2076475;28;20590;-58
2023/05/10 00:15:38;;;;;;;3.37;2.47;;;;;21.80;99680.00;;;;2077148;28;20904;-58
2023/05/10 00:16:39;;;;;;;2.33;1.83;;;;;21.80;99671.00;;;;2076914;28;20657;-58
2023/05/10 00:17:40;;;;;;;2.27;1.90;;;;;21.80;99671.00;;;;2081397;28;20264;-57
2023/05/10 00:18:40;;;;;;;5.27;2.60;;;;;21.80;99665.00;;;;2066373;28;20232;-58
2023/05/10 00:19:40;;;;;;;2.97;2.23;;;;;21.80;99672.00;;;;2076657;28;20213;-58
2023/05/10 00:20:41;;;;;;;5.63;2.93;;;;;21.80;99671.00;;;;2077518;28;20220;-57
2023/05/10 00:21:41;;;;;;;2.57;2.10;;;;;21.80;99672.00;;;;2076370;28;20221;-57
2023/05/10 00:22:41;;;;;;;2.63;2.13;;;;;21.80;99672.00;;;;2074338;28;20214;-55
2023/05/10 00:23:42;;;;;;;3.60;2.63;;;;;21.80;99679.00;;;;2069060;28;20232;-53
2023/05/10 00:24:42;;;;;;;3.40;2.30;;;;;21.80;99673.00;;;;2077405;28;20217;-50
2023/05/10 00:25:43;;;;;;;2.70;2.30;;;;;21.80;99668.00;;;;2076643;28;20198;-52
2023/05/10 00:26:43;;;;;;;3.65;2.50;;;;;21.80;99673.00;;;;2077442;28;20722;-49
2023/05/10 00:27:44;;;;;;;6.13;2.43;;;;;21.80;99670.00;;;;2077615;28;20264;-51
2023/05/10 00:28:44;;;;;;;3.63;2.20;;;;;21.80;99672.00;;;;2065467;28;20587;-51
2023/05/10 00:29:44;;;;;;;2.57;2.37;;;;;21.70;99673.00;;;;2084749;28;20201;-51
2023/05/10 00:30:45;;;;;;;4.70;2.27;;;;;21.70;99672.00;;;;2076994;28;20194;-51
2023/05/10 00:31:45;;;;;;;4.00;2.33;;;;;21.70;99673.00;;;;2077616;28;20213;-51
2023/05/10 00:32:47;;;;;;;3.70;3.10;;;;;21.70;99668.00;;;;2076478;28;20222;-51
2023/05/10 00:33:48;;;;;;;3.35;2.55;;;;;21.70;99672.00;;;;2072935;28;20277;-51
2023/05/10 00:34:48;;;;;;;3.33;2.50;;;;;21.60;99669.00;;;;2084985;28;20213;-50
2023/05/10 00:35:49;;;;;;;3.70;2.40;;;;;21.60;99662.00;;;;2076594;28;20243;-51
2023/05/10 00:36:49;;;;;;;3.70;2.63;;;;;21.60;99671.00;;;;2077528;28;20317;-51
2023/05/10 00:37:50;;;;;;;3.13;2.77;;;;;21.60;99671.00;;;;2077321;28;20287;-50
2023/05/10 00:38:50;;;;;;;2.80;2.57;;;;;21.60;99668.00;;;;2072175;28;20252;-51
2023/05/10 00:39:50;;;;;;;2.53;2.17;;;;;21.60;99674.00;;;;2081236;28;20214;-50
2023/05/10 00:40:51;;;;;;;4.03;3.20;;;;;21.60;99675.00;;;;2077765;28;20209;-50
2023/05/10 00:41:51;;;;;;;3.13;2.83;;;;;21.60;99674.00;;;;2076731;28;20213;-50
2023/05/10 00:42:52;;;;;;;3.40;2.83;;;;;21.60;99671.00;;;;2076144;28;20248;-51
2023/05/10 00:43:52;;;;;;;4.00;2.33;;;;;21.60;99676.00;;;;2068733;28;20222;-50
2023/05/10 00:44:52;;;;;;;3.90;2.60;;;;;21.60;99669.00;;;;2079588;28;20694;-50
2023/05/10 00:45:53;;;;;;;3.30;2.80;;;;;21.60;99679.00;;;;2077318;28;20683;-50
2023/05/10 00:46:53;;;;;;;3.13;2.67;;;;;21.60;99664.00;;;;2076310;28;20579;-51
2023/05/10 00:47:54;;;;;;;4.30;2.87;;;;;21.60;99675.00;;;;2076685;28;20402;-51
2023/05/10 00:48:55;;;;;;;3.38;2.83;;;;;21.60;99679.00;;;;2066862;28;20233;-50
2023/05/10 00:49:55;;;;;;;3.37;2.80;;;;;21.60;99671.00;;;;2075755;28;20304;-51
2023/05/10 00:50:56;;;;;;;4.10;2.87;;;;;21.60;99677.00;;;;2083257;28;20667;-51
2023/05/10 00:51:56;;;;;;;2.90;2.63;;;;;21.60;99674.00;;;;2075556;28;20625;-51
2023/05/10 00:52:58;;;;;;;3.13;2.83;;;;;21.60;99668.00;;;;2076592;28;20868;-52
2023/05/10 00:53:58;;;;;;;3.40;3.10;;;;;21.60;99671.00;;;;2061804;28;20268;-51
2023/05/10 00:54:59;;;;;;;2.73;2.33;;;;;21.60;99672.00;;;;2078706;28;20214;-51
2023/05/10 00:55:59;;;;;;;4.43;2.93;;;;;21.60;99667.00;;;;2082474;28;20282;-50
2023/05/10 00:57:00;;;;;;;3.17;2.77;;;;;21.60;99668.00;;;;2075947;28;20304;-51
2023/05/10 00:58:01;;;;;;;4.33;3.10;;;;;21.60;99671.00;;;;2084776;28;20295;-51
2023/05/10 00:59:01;;;;;;;4.75;3.50;;;;;21.60;99672.00;;;;2065599;28;20201;-50
2023/05/10 01:00:02;;;;;;;5.60;3.10;;;;;21.60;99669.00;;;;2078032;28;20221;-50
2023/05/10 01:01:03;;;;;;;4.00;2.80;;;;;21.60;99678.00;;;;2079956;28;20586;-51
2023/05/10 01:02:03;;;;;;;3.20;2.90;;;;;21.60;99678.00;;;;2078962;28;20998;-50
2023/05/10 01:03:04;;;;;;;3.80;3.00;;;;;21.60;99674.00;;;;2074028;28;20210;-50
2023/05/10 01:04:04;;;;;;;3.10;2.80;;;;;21.60;99676.00;;;;2066428;28;20214;-51
2023/05/10 01:05:05;;;;;;;3.70;3.13;;;;;21.60;99673.00;;;;2076633;28;20264;-51
2023/05/10 01:06:06;;;;;;;5.03;2.80;;;;;21.60;99674.00;;;;2077641;28;20323;-51
2023/05/10 01:07:06;;;;;;;4.17;3.03;;;;;21.60;99675.00;;;;2078863;28;21062;-51
2023/05/10 01:08:08;;;;;;;3.30;3.00;;;;;21.60;99672.00;;;;2079896;28;20232;-51
2023/05/10 01:09:08;;;;;;;3.10;2.80;;;;;21.60;99678.00;;;;2064732;28;20224;-52
2023/05/10 01:10:10;;;;;;;4.47;3.47;;;;;21.60;99678.00;;;;2059955;28;20310;-51
2023/05/10 01:11:10;;;;;;;3.30;3.00;;;;;21.60;99677.00;;;;2071885;28;20219;-51
2023/05/10 01:12:11;;;;;;;3.47;3.17;;;;;21.60;99676.00;;;;2079812;28;20669;-50
2023/05/10 01:13:12;;;;;;;3.70;2.97;;;;;21.60;99685.00;;;;2080154;28;20217;-51
2023/05/10 01:14:12;;;;;;;3.37;2.80;;;;;21.60;99678.00;;;;2066142;28;20872;-52
2023/05/10 01:15:12;;;;;;;3.20;2.90;;;;;21.60;99672.00;;;;2071925;28;20213;-51
2023/05/10 01:16:13;;;;;;;4.10;3.17;;;;;21.60;99679.00;;;;2065798;28;20210;-51
2023/05/10 01:17:13;;;;;;;3.40;3.10;;;;;21.60;99688.00;;;;2060182;28;20211;-51
2023/05/10 01:18:13;;;;;;;3.13;2.83;;;;;21.60;99691.00;;;;2071924;28;20311;-51
2023/05/10 01:19:22;;;;;;;4.17;2.83;;;;;21.60;99683.00;;;;2057638;28;20284;-51
2023/05/10 01:20:23;;;;;;;3.00;2.70;;;;;21.60;99687.00;;;;2068696;28;20210;-51
2023/05/10 01:21:27;;;;;;;5.20;3.10;;;;;21.60;99685.00;;;;2075530;28;20206;-51
2023/05/10 01:22:37;;;;;;;4.78;3.00;;;;;21.50;99692.00;;;;2074255;28;20733;-51
2023/05/10 01:24:25;;;;;;;3.10;2.80;;;;;21.50;99686.00;;;;2068872;28;20597;-51
2023/05/10 01:25:55;;;;;;;3.65;2.78;;;;;21.50;99689.00;;;;2058589;28;20210;-51
2023/05/10 01:27:24;;;;;;;3.05;2.75;;;;;21.50;99688.00;;;;2069365;28;20230;-51
2023/05/10 01:28:46;;;;;;;2.90;2.58;;;;;21.50;99691.00;;;;2062371;28;20214;-51
2023/05/10 01:30:15;;;;;;;2.88;2.53;;;;;21.50;99683.00;;;;2075840;28;20296;-51
2023/05/10 01:31:40;;;;;;;3.85;3.00;;;;;21.50;99692.00;;;;2071916;28;20221;-51
2023/05/10 01:33:00;;;;;;;2.92;2.60;;;;;21.50;99686.00;;;;2074176;28;20221;-51
2023/05/10 01:34:08;;;;;;;3.10;2.80;;;;;21.40;99697.00;;;;2068332;28;20209;-51
2023/05/10 01:35:23;;;;;;;2.63;2.42;;;;;21.50;99688.00;;;;2079418;28;20213;-51
2023/05/10 01:36:35;;;;;;;3.40;3.10;;;;;21.50;99686.00;;;;2076576;28;20209;-51
2023/05/10 01:37:44;;;;;;;6.03;2.90;;;;;21.50;99697.00;;;;2076139;28;20214;-51
2023/05/10 01:38:50;;;;;;;3.13;2.83;;;;;21.50;99690.00;;;;2067902;28;20686;-50
2023/05/10 01:39:56;;;;;;;4.20;2.35;;;;;21.50;99690.00;;;;2069522;28;20206;-51
2023/05/10 01:41:28;;;;;;;3.63;3.20;;;;;21.50;99694.00;;;;2069404;28;20222;-51
2023/05/10 01:42:33;;;;;;;2.72;2.50;;;;;21.50;99693.00;;;;2075315;28;20217;-51
2023/05/10 01:43:38;;;;;;;2.80;2.50;;;;;21.50;99692.00;;;;2053817;28;20215;-51
2023/05/10 01:44:58;;;;;;;2.63;2.33;;;;;21.50;99691.00;;;;2062042;28;20251;-51
2023/05/10 01:46:04;;;;;;;3.03;2.67;;;;;21.50;99690.00;;;;2065712;28;20230;-50
2023/05/10 01:47:10;;;;;;;3.60;2.88;;;;;21.50;99694.00;;;;2070750;28;20218;-51
2023/05/10 01:48:10;;;;;;;4.13;3.17;;;;;21.50;99692.00;;;;2068724;28;20332;-52
2023/05/10 01:49:27;;;;;;;3.47;2.80;;;;;21.50;99682.00;;;;2049118;28;21010;-51
2023/05/10 01:50:29;;;;;;;3.20;2.90;;;;;21.50;99683.00;;;;2065055;28;20229;-50
2023/05/10 01:51:35;;;;;;;2.58;2.33;;;;;21.50;99690.00;;;;2063936;28;21020;-50
2023/05/10 01:52:40;;;;;;;3.75;2.70;;;;;21.50;99693.00;;;;2066469;28;20265;-51
2023/05/10 01:53:41;;;;;;;3.00;2.70;;;;;21.50;99704.00;;;;2059398;28;20680;-51
2023/05/10 01:54:44;;;;;;;2.60;2.20;;;;;21.50;99694.00;;;;2067556;28;20221;-51
2023/05/10 01:55:46;;;;;;;3.00;2.70;;;;;21.50;99681.00;;;;2068478;28;20866;-51
2023/05/10 01:56:58;;;;;;;4.03;3.17;;;;;21.50;99694.00;;;;2068485;28;20210;-51
2023/05/10 01:58:03;;;;;;;3.20;2.90;;;;;21.50;99700.00;;;;2069625;28;20333;-50
2023/05/10 01:59:06;;;;;;;3.13;2.92;;;;;21.50;99697.00;;;;2057312;28;20207;-51
2023/05/10 02:00:07;;;;;;;3.05;2.75;;;;;21.50;99703.00;;;;2075489;28;20279;-51
2023/05/10 02:01:08;;;;;;;3.03;2.65;;;;;21.50;99701.00;;;;2065360;28;20576;-51
2023/05/10 02:02:11;;;;;;;2.80;2.50;;;;;21.50;99700.00;;;;2071036;28;20752;-51
2023/05/10 02:03:11;;;;;;;2.60;2.40;;;;;21.50;99701.00;;;;2079178;28;20249;-51
2023/05/10 02:04:12;;;;;;;2.90;2.53;;;;;21.50;99695.00;;;;2050815;28;20245;-51
2023/05/10 02:05:14;;;;;;;2.80;2.60;;;;;21.50;99699.00;;;;2063026;28;20714;-52
2023/05/10 02:06:15;;;;;;;3.50;3.08;;;;;21.50;99702.00;;;;2058973;28;20659;-51
2023/05/10 02:07:15;;;;;;;3.67;3.37;;;;;21.50;99702.00;;;;2067680;28;20276;-51
2023/05/10 02:08:16;;;;;;;3.27;2.97;;;;;21.50;99703.00;;;;2068630;28;20920;-51
2023/05/10 02:09:16;;;;;;;3.70;3.20;;;;;21.50;99705.00;;;;2052079;28;20220;-51
2023/05/10 02:10:17;;;;;;;4.43;3.30;;;;;21.50;99696.00;;;;2069622;28;20210;-51
2023/05/10 02:11:17;;;;;;;3.53;2.37;;;;;21.50;99695.00;;;;2067636;28;20241;-51
2023/05/10 02:12:18;;;;;;;3.73;3.20;;;;;21.40;99704.00;;;;2060077;28;20227;-50
2023/05/10 02:13:18;;;;;;;3.80;3.30;;;;;21.50;99711.00;;;;2059440;28;20237;-51
2023/05/10 02:14:18;;;;;;;3.67;3.37;;;;;21.50;99701.00;;;;2055533;28;20294;-51
2023/05/10 02:15:22;;;;;;;3.83;3.40;;;;;21.50;99708.00;;;;2059419;28;20290;-51
2023/05/10 02:16:23;;;;;;;3.80;3.13;;;;;21.50;99708.00;;;;2068846;28;20210;-50
2023/05/10 02:17:24;;;;;;;3.95;3.10;;;;;21.50;99709.00;;;;2074397;28;20852;-51
2023/05/10 02:18:24;;;;;;;3.47;3.17;;;;;21.50;99716.00;;;;2067246;28;20311;-51
2023/05/10 02:19:25;;;;;;;3.37;3.07;;;;;21.50;99710.00;;;;2066380;28;20207;-50
2023/05/10 02:20:25;;;;;;;3.63;3.33;;;;;21.50;99707.00;;;;2070727;28;20289;-51
2023/05/10 02:21:26;;;;;;;3.53;3.20;;;;;21.50;99712.00;;;;2056771;28;20222;-51
2023/05/10 02:22:27;;;;;;;3.60;2.87;;;;;21.50;99708.00;;;;2060067;28;20879;-51
2023/05/10 02:23:27;;;;;;;3.20;2.90;;;;;21.40;99708.00;;;;2057932;28;20233;-51
2023/05/10 02:24:27;;;;;;;4.60;3.90;;;;;21.40;99717.00;;;;2078670;28;20678;-51
2023/05/10 02:25:28;;;;;;;3.83;3.20;;;;;21.50;99717.00;;;;2077476;28;20220;-51
2023/05/10 02:26:28;;;;;;;4.37;3.70;;;;;21.50;99719.00;;;;2065055;28;20225;-51
2023/05/10 02:27:28;;;;;;;3.57;3.03;;;;;21.50;99712.00;;;;2061697;28;20353;-51
2023/05/10 02:28:29;;;;;;;3.67;3.27;;;;;21.50;99705.00;;;;2055538;28;20221;-52
2023/05/10 02:29:29;;;;;;;3.70;2.90;;;;;21.50;99722.00;;;;2060883;28;20230;-50
2023/05/10 02:30:31;;;;;;;5.13;4.37;;;;;21.50;99717.00;;;;2070991;28;20236;-49
2023/05/10 02:31:32;;;;;;;4.57;3.35;;;;;21.50;99717.00;;;;2081050;28;20656;-51
2023/05/10 02:32:32;;;;;;;6.50;3.60;;;;;21.50;99719.00;;;;2075610;28;20228;-50
2023/05/10 02:33:32;;;;;;;3.30;3.00;;;;;21.50;99721.00;;;;2055040;28;20465;-51
2023/05/10 02:34:33;;;;;;;5.30;4.07;;;;;21.20;99717.00;;;;2042282;28;20223;-51
2023/05/10 02:35:33;;;;;;;4.30;3.20;;;;;21.50;99715.00;;;;2055841;28;20277;-50
2023/05/10 02:36:33;;;;;;;3.80;3.27;;;;;21.40;99717.00;;;;2076776;28;20588;-51
2023/05/10 02:37:34;;;;;;;4.67;4.10;;;;;21.50;99717.00;;;;2076353;28;20243;-51
2023/05/10 02:38:34;;;;;;;3.97;3.57;;;;;21.50;99706.00;;;;2060937;28;20214;-50
2023/05/10 02:39:34;;;;;;;5.10;4.03;;;;;21.40;99717.00;;;;2072597;28;20210;-51
2023/05/10 02:40:35;;;;;;;4.93;4.07;;;;;21.40;99717.00;;;;2070755;28;20207;-51
2023/05/10 02:41:35;;;;;;;4.80;3.90;;;;;21.50;99712.00;;;;2067674;28;20294;-50
2023/05/10 02:42:37;;;;;;;4.77;4.03;;;;;21.40;99717.00;;;;2074391;28;20217;-50
2023/05/10 02:43:37;;;;;;;4.22;3.83;;;;;21.40;99712.00;;;;2054248;28;20211;-50
2023/05/10 02:44:37;;;;;;;4.37;3.97;;;;;21.40;99717.00;;;;2072926;28;20331;-51
2023/05/10 02:45:38;;;;;;;5.07;4.10;;;;;21.40;99709.00;;;;2070233;28;20235;-50
2023/05/10 02:46:39;;;;;;;6.07;4.40;;;;;21.40;99719.00;;;;2067226;28;20301;-52
2023/05/10 02:47:39;;;;;;;4.90;4.27;;;;;21.40;99711.00;;;;2075946;28;20213;-50
2023/05/10 02:48:40;;;;;;;4.10;3.70;;;;;21.40;99711.00;;;;2059818;28;20319;-49
2023/05/10 02:49:40;;;;;;;5.53;4.40;;;;;21.40;99706.00;;;;2083697;28;20212;-49
2023/05/10 02:50:42;;;;;;;4.33;3.93;;;;;21.40;99703.00;;;;2077205;28;20214;-49
2023/05/10 02:51:48;;;;;;;4.72;4.05;;;;;21.40;99712.00;;;;2077613;28;20701;-52
2023/05/10 02:52:51;;;;;;;4.85;4.10;;;;;21.40;99722.00;;;;2068847;28;20206;-51
2023/05/10 02:53:52;;;;;;;5.95;4.35;;;;;21.40;99711.00;;;;2060219;28;20612;-50
2023/05/10 02:54:54;;;;;;;5.33;4.30;;;;;21.40;99712.00;;;;2077787;28;20221;-51
2023/05/10 02:55:55;;;;;;;5.28;4.18;;;;;21.40;99713.00;;;;2082902;28;20760;-51
2023/05/10 02:57:02;;;;;;;5.68;4.50;;;;;21.40;99711.00;;;;2080248;28;20701;-51
2023/05/10 02:58:03;;;;;;;4.53;4.07;;;;;21.40;99708.00;;;;2083360;28;20224;-50
2023/05/10 02:59:03;;;;;;;4.60;4.03;;;;;21.40;99715.00;;;;2081369;28;20200;-51
2023/05/10 03:00:04;;;;;;;5.07;4.57;;;;;21.40;99710.00;;;;2077010;28;20702;-52
2023/05/10 03:01:06;;;;;;;5.70;4.40;;;;;21.40;99712.00;;;;2077324;28;20705;-50
2023/05/10 03:02:06;;;;;;;4.60;4.10;;;;;21.30;99711.00;;;;2080488;28;20822;-51
2023/05/10 03:03:07;;;;;;;4.03;3.63;;;;;21.40;99704.00;;;;2084981;28;20298;-50
2023/05/10 03:04:07;;;;;;;6.13;4.20;;;;;21.40;99711.00;;;;2073534;28;20206;-51
2023/05/10 03:05:08;;;;;;;4.43;4.00;;;;;21.40;99712.00;;;;2081424;28;20218;-52
2023/05/10 03:06:09;;;;;;;5.40;4.63;;;;;21.40;99711.00;;;;2082760;28;20255;-51
2023/05/10 03:07:09;;;;;;;4.30;3.90;;;;;21.40;99719.00;;;;2077293;28;20230;-52
2023/05/10 03:08:10;;;;;;;5.40;4.03;;;;;21.40;99719.00;;;;2079861;28;20251;-50
2023/05/10 03:09:12;;;;;;;4.67;4.17;;;;;21.40;99712.00;;;;2060722;28;20315;-50
2023/05/10 03:10:12;;;;;;;4.70;4.20;;;;;21.40;99718.00;;;;2068559;28;20560;-51
2023/05/10 03:11:45;;;;;;;5.63;5.00;;;;;21.40;99720.00;;;;2071243;28;20259;-51
2023/05/10 03:12:54;;;;;;;4.43;4.03;;;;;21.40;99724.00;;;;2077679;28;20275;-51
2023/05/10 03:14:17;;;;;;;6.53;4.63;;;;;21.40;99724.00;;;;2067858;28;20214;-51
2023/05/10 03:15:37;;;;;;;4.72;3.72;;;;;21.40;99746.00;;;;2080945;28;20275;-51
2023/05/10 03:16:46;;;;;;;5.13;4.30;;;;;21.40;99714.00;;;;2071628;28;20222;-51
2023/05/10 03:17:57;;;;;;;5.20;4.70;;;;;21.40;99721.00;;;;2070108;28;20210;-51
2023/05/10 03:19:06;;;;;;;5.30;4.10;;;;;21.40;99721.00;;;;2060562;28;20717;-50
2023/05/10 03:20:09;;;;;;;5.18;4.57;;;;;21.40;99725.00;;;;2085653;28;20247;-51
2023/05/10 03:21:12;;;;;;;5.13;4.40;;;;;21.40;99728.00;;;;2078569;28;20233;-53
2023/05/10 03:22:13;;;;;;;5.25;4.63;;;;;21.40;99725.00;;;;2069767;28;20811;-51
2023/05/10 03:23:35;;;;;;;4.40;3.87;;;;;21.40;99727.00;;;;2068151;28;20216;-51
2023/05/10 03:24:36;;;;;;;4.90;4.10;;;;;21.40;99725.00;;;;2077819;28;20559;-51
2023/05/10 03:25:37;;;;;;;5.55;4.80;;;;;21.40;99725.00;;;;2081756;28;20684;-51
2023/05/10 03:26:37;;;;;;;4.83;4.33;;;;;21.40;99721.00;;;;2091722;28;20216;-51
2023/05/10 03:27:40;;;;;;;5.40;4.37;;;;;21.40;99735.00;;;;2082596;28;20937;-51
2023/05/10 03:28:40;;;;;;;4.90;4.28;;;;;21.40;99726.00;;;;2050784;28;20986;-50
2023/05/10 03:29:40;;;;;;;5.37;4.87;;;;;21.40;99723.00;;;;2065329;28;20325;-50
2023/05/10 03:30:41;;;;;;;5.10;4.40;;;;;21.40;99735.00;;;;2060419;28;20214;-51
2023/05/10 03:31:41;;;;;;;6.40;5.43;;;;;21.40;99738.00;;;;2067778;28;20651;-51
2023/05/10 03:32:42;;;;;;;4.77;4.23;;;;;21.40;99733.00;;;;2078323;28;20599;-51
2023/05/10 03:33:47;;;;;;;5.10;4.60;;;;;21.40;99736.00;;;;2068106;28;20233;-51
2023/05/10 03:34:47;;;;;;;5.10;4.60;;;;;21.40;99732.00;;;;2076713;28;20279;-51
2023/05/10 03:35:48;;;;;;;5.47;4.97;;;;;21.40;99729.00;;;;2077705;28;20636;-51
2023/05/10 03:36:48;;;;;;;5.93;4.90;;;;;21.40;99731.00;;;;2083616;28;20346;-50
2023/05/10 03:37:48;;;;;;;6.90;5.20;;;;;21.40;99728.00;;;;2076807;28;20213;-51
2023/05/10 03:38:49;;;;;;;6.13;5.43;;;;;21.40;99737.00;;;;2068045;28;20268;-51
2023/05/10 03:39:49;;;;;;;5.70;5.10;;;;;21.40;99733.00;;;;2078407;28;20217;-51
2023/05/10 03:40:49;;;;;;;5.77;4.70;;;;;21.40;99729.00;;;;2070099;28;20261;-51
2023/05/10 03:41:50;;;;;;;5.57;4.57;;;;;21.40;99743.00;;;;2081397;28;20218;-51
2023/05/10 03:42:50;;;;;;;5.83;5.00;;;;;21.40;99736.00;;;;2077836;28;20221;-51
2023/05/10 03:43:51;;;;;;;5.90;5.27;;;;;21.30;99733.00;;;;2068402;28;20233;-51
2023/05/10 03:44:51;;;;;;;5.93;5.10;;;;;21.40;99742.00;;;;2076961;28;20221;-51
2023/05/10 03:45:51;;;;;;;5.60;5.10;;;;;21.40;99739.00;;;;2077846;28;20236;-51
2023/05/10 03:46:52;;;;;;;6.10;4.70;;;;;21.30;99742.00;;;;2076804;28;20224;-51
2023/05/10 03:47:53;;;;;;;6.13;5.13;;;;;21.40;99742.00;;;;2085878;28;20232;-51
2023/05/10 03:48:54;;;;;;;5.55;5.00;;;;;21.30;99742.00;;;;2067211;28;20637;-51
2023/05/10 03:49:54;;;;;;;5.70;4.90;;;;;21.30;99736.00;;;;2076812;28;20213;-51
2023/05/10 03:50:54;;;;;;;5.53;4.80;;;;;21.30;99741.00;;;;2077668;28;20245;-51
2023/05/10 03:51:54;;;;;;;6.23;5.60;;;;;21.30;99748.00;;;;2077022;28;20212;-51
2023/05/10 03:52:55;;;;;;;5.00;4.50;;;;;21.40;99744.00;;;;2077842;28;20206;-50
2023/05/10 03:53:55;;;;;;;5.37;4.87;;;;;21.40;99757.00;;;;2070569;28;20241;-51
2023/05/10 03:54:56;;;;;;;4.63;4.20;;;;;21.30;99751.00;;;;2082046;28;20217;-51
2023/05/10 03:55:56;;;;;;;6.87;5.30;;;;;21.30;99756.00;;;;2077217;28;20289;-51
2023/05/10 03:56:57;;;;;;;5.87;4.53;;;;;21.30;99754.00;;;;2073878;28;20814;-51
2023/05/10 03:57:57;;;;;;;6.60;5.10;;;;;21.40;99751.00;;;;2085448;28;20220;-51
2023/05/10 03:58:57;;;;;;;5.30;4.50;;;;;21.30;99752.00;;;;2068035;28;20226;-51
2023/05/10 03:59:58;;;;;;;7.00;5.53;;;;;21.40;99747.00;;;;2080602;28;20222;-51
2023/05/10 04:00:58;;;;;;;5.30;4.80;;;;;21.40;99745.00;;;;2080857;28;20245;-51
2023/05/10 04:01:59;;;;;;;7.27;5.50;;;;;21.40;99750.00;;;;2070487;28;22992;-51
2023/05/10 04:02:59;;;;;;;5.23;4.73;;;;;21.30;99745.00;;;;2077214;28;20222;-50
2023/05/10 04:03:59;;;;;;;5.37;4.87;;;;;21.30;99752.00;;;;2067674;28;20235;-50
2023/05/10 04:05:00;;;;;;;5.50;5.00;;;;;21.30;99752.00;;;;2077513;28;20702;-50
2023/05/10 04:06:01;;;;;;;5.50;4.97;;;;;21.40;99746.00;;;;2085512;28;20686;-50
2023/05/10 04:07:01;;;;;;;7.13;5.68;;;;;21.30;99740.00;;;;2074017;28;20230;-50
2023/05/10 04:08:02;;;;;;;6.57;5.77;;;;;21.30;99747.00;;;;2073574;28;20925;-50
2023/05/10 04:09:04;;;;;;;6.17;5.17;;;;;21.30;99749.00;;;;2066435;28;20764;-49
2023/05/10 04:10:04;;;;;;;5.20;4.70;;;;;21.30;99747.00;;;;2078426;28;20448;-49
2023/05/10 04:11:06;;;;;;;5.73;5.17;;;;;21.30;99745.00;;;;2082915;28;20300;-50
2023/05/10 04:12:07;;;;;;;5.60;5.00;;;;;21.30;99750.00;;;;2077951;28;20225;-49
2023/05/10 04:13:07;;;;;;;6.00;5.40;;;;;21.30;99754.00;;;;2078721;28;20255;-49
2023/05/10 04:14:08;;;;;;;5.83;5.17;;;;;21.30;99755.00;;;;2067031;28;20205;-49
2023/05/10 04:15:08;;;;;;;6.20;5.60;;;;;21.40;99753.00;;;;2077669;28;20241;-49
2023/05/10 04:16:09;;;;;;;5.47;4.90;;;;;21.40;99753.00;;;;2079014;28;20240;-50
2023/05/10 04:17:10;;;;;;;6.70;5.10;;;;;21.30;99758.00;;;;2085224;28;20217;-49
2023/05/10 04:18:10;;;;;;;6.78;6.00;;;;;21.30;99756.00;;;;2076161;28;20588;-50
2023/05/10 04:19:10;;;;;;;6.20;5.60;;;;;21.30;99754.00;;;;2067014;28;20227;-50
2023/05/10 04:20:11;;;;;;;6.00;5.40;;;;;21.30;99749.00;;;;2079030;28;20217;-50
2023/05/10 04:21:13;;;;;;;6.27;5.50;;;;;21.30;99751.00;;;;2080639;28;20232;-50
2023/05/10 04:22:13;;;;;;;6.07;5.45;;;;;21.30;99754.00;;;;2084172;28;20221;-50
2023/05/10 04:23:14;;;;;;;7.20;5.73;;;;;21.30;99750.00;;;;2076646;28;20469;-50
2023/05/10 04:24:14;;;;;;;6.50;5.77;;;;;21.30;99750.00;;;;2067739;28;20238;-49
2023/05/10 04:25:15;;;;;;;6.33;5.73;;;;;21.30;99751.00;;;;2076918;28;20622;-49
2023/05/10 04:26:15;;;;;;;7.10;6.37;;;;;21.30;99759.00;;;;2077230;28;20320;-50
2023/05/10 04:27:15;;;;;;;6.67;5.97;;;;;21.30;99758.00;;;;2077383;28;20208;-49
2023/05/10 04:28:16;;;;;;;7.60;6.80;;;;;21.30;99751.00;;;;2076651;28;20264;-49
2023/05/10 04:29:16;;;;;;;8.10;6.70;;;;;21.30;99756.00;;;;2067336;28;20225;-50
2023/05/10 04:30:16;;;;;;;7.83;6.87;;;;;21.30;99758.00;;;;2076060;28;20292;-50
2023/05/10 04:31:17;;;;;;;6.93;6.07;;;;;21.30;99759.00;;;;2080546;28;20211;-50
2023/05/10 04:32:17;;;;;;;7.10;6.40;;;;;21.30;99754.00;;;;2080202;28;20209;-50
2023/05/10 04:33:17;;;;;;;7.87;6.90;;;;;21.30;99761.00;;;;2077294;28;20198;-49
2023/05/10 04:34:20;;;;;;;8.10;7.30;;;;;21.30;99759.00;;;;2068215;28;20931;-50
2023/05/10 04:35:21;;;;;;;8.30;6.40;;;;;21.30;99763.00;;;;2076367;28;20295;-49
2023/05/10 04:36:21;;;;;;;7.77;6.97;;;;;21.30;99766.00;;;;2080880;28;20284;-50
2023/05/10 04:37:22;;;;;;;8.10;7.30;;;;;21.30;99766.00;;;;2078142;28;20237;-49
2023/05/10 04:38:23;;;;;;;7.75;6.68;;;;;21.30;99767.00;;;;2067274;28;20582;-50
2023/05/10 04:39:23;;;;;;;8.53;7.63;;;;;21.30;99765.00;;;;2076565;28;20210;-50
2023/05/10 04:40:23;;;;;;;9.80;8.20;;;;;21.30;99760.00;;;;2076592;28;20210;-50
2023/05/10 04:41:25;;;;;;;8.50;7.60;;;;;21.30;99758.00;;;;2081289;28;20286;-49
2023/05/10 04:42:25;;;;;;;8.52;7.63;;;;;21.30;99763.00;;;;2080719;28;20209;-50
2023/05/10 04:43:26;;;;;;;9.00;7.60;;;;;21.30;99764.00;;;;2072597;28;20202;-49
2023/05/10 04:44:26;;;;;;;8.67;7.83;;;;;21.30;99757.00;;;;2084008;28;20232;-50
2023/05/10 04:45:26;;;;;;;8.73;7.83;;;;;21.30;99766.00;;;;2083815;28;20197;-49
2023/05/10 04:46:27;;;;;;;10.90;8.73;;;;;21.30;99761.00;;;;2074640;28;20206;-50
2023/05/10 04:47:27;;;;;;;9.00;8.10;;;;;21.30;99762.00;;;;2081535;28;20209;-50
2023/05/10 04:48:27;;;;;;;8.10;7.30;;;;;21.30;99756.00;;;;2070878;28;20701;-50
2023/05/10 04:49:29;;;;;;;9.40;8.10;;;;;21.30;99762.00;;;;2080753;28;20544;-50
2023/05/10 04:50:29;;;;;;;9.77;7.97;;;;;21.30;99763.00;;;;2081495;28;20208;-49
2023/05/10 04:51:31;;;;;;;8.90;8.00;;;;;21.30;99758.00;;;;2079311;28;20280;-49
2023/05/10 04:52:31;;;;;;;9.20;8.27;;;;;21.30;99768.00;;;;2077291;28;20221;-49
2023/05/10 04:53:32;;;;;;;9.23;8.30;;;;;21.30;99760.00;;;;2066850;28;20232;-50
2023/05/10 04:54:32;;;;;;;10.30;7.83;;;;;21.30;99761.00;;;;2081215;28;20837;-50
2023/05/10 04:55:32;;;;;;;9.70;8.80;;;;;21.30;99764.00;;;;2081941;28;20244;-50
2023/05/10 04:56:33;;;;;;;10.17;9.10;;;;;21.30;99760.00;;;;2077306;28;20221;-49
2023/05/10 04:57:33;;;;;;;10.93;8.73;;;;;21.30;99781.00;;;;2077335;28;20217;-49
2023/05/10 04:58:33;;;;;;;9.40;8.10;;;;;21.30;99776.00;;;;2066358;28;20245;-50
2023/05/10 04:59:35;;;;;;;10.70;8.47;;;;;21.30;99775.00;;;;2076402;28;20218;-49
2023/05/10 05:00:36;;;;;;;10.27;8.45;;;;;21.30;99775.00;;;;2076702;28;20586;-50
2023/05/10 05:01:36;;;;;;;9.00;8.10;;;;;21.30;99770.00;;;;2071361;28;20214;-49
2023/05/10 05:02:36;;;;;;;9.67;8.70;;;;;21.30;99774.00;;;;2079051;28;20209;-50
2023/05/10 05:03:37;;;;;;;10.60;7.90;;;;;21.30;99773.00;;;;2066665;28;21597;-49
2023/05/10 05:04:37;;;;;;;9.20;8.20;;;;;21.30;99769.00;;;;2076978;28;20248;-50
2023/05/10 05:05:37;;;;;;;9.70;8.80;;;;;21.30;99775.00;;;;2076192;28;20288;-50
2023/05/10 05:06:38;;;;;;;9.20;8.20;;;;;21.30;99778.00;;;;2082233;28;20220;-49
2023/05/10 05:07:38;;;;;;;10.83;9.23;;;;;21.30;99776.00;;;;2081335;28;20701;-50
2023/05/10 05:08:39;;;;;;;10.47;9.37;;;;;21.30;99777.00;;;;2064580;28;20998;-50
2023/05/10 05:09:39;;;;;;;9.87;8.30;;;;;21.30;99774.00;;;;2076248;28;20608;-49
2023/05/10 05:10:39;;;;;;;10.33;9.33;;;;;21.30;99774.00;;;;2076010;28;20546;-50
2023/05/10 05:11:40;;;;;;;9.93;8.87;;;;;21.30;99776.00;;;;2082915;28;20581;-50
2023/05/10 05:12:40;;;;;;;10.10;9.00;;;;;21.30;99774.00;;;;2079361;28;20217;-51